Time;durP1;ratioP1;P1;durP2;ratioP2;P2;SDS_P1;SDS_P2;PMS_P1;PMS_P2;Temp;Humidity;BMP_temperature;BMP_pressure;BME280_temperature;BME280_humidity;BME280_pressure;Samples;Min_cycle;Max_cycle;Signal;HPM_P1;HPM_P2
2023/07/30 00:01:33;;;;;;;84.27;48.77;;;19.10;99.90;;;;;;6242510;23;20447;-72
2023/07/30 00:03:59;;;;;;;83.60;48.67;;;19.10;99.90;;;;;;6242614;23;20407;-72
2023/07/30 00:06:26;;;;;;;83.07;49.80;;;19.00;99.90;;;;;;6242257;23;20404;-72
2023/07/30 00:08:53;;;;;;;82.40;49.43;;;18.90;99.90;;;;;;6241849;23;20904;-72
2023/07/30 00:11:20;;;;;;;92.80;49.10;;;19.00;99.90;;;;;;6241711;23;20465;-72
2023/07/30 00:13:48;;;;;;;82.50;49.07;;;18.90;99.90;;;;;;6242442;23;20887;-72
2023/07/30 00:16:14;;;;;;;83.80;49.03;;;18.90;99.90;;;;;;6242898;23;20404;-72
2023/07/30 00:18:41;;;;;;;82.00;48.30;;;18.90;99.90;;;;;;6241991;23;20579;-70
2023/07/30 00:21:08;;;;;;;83.27;49.30;;;18.90;99.90;;;;;;6242206;23;20467;-71
2023/07/30 00:23:34;;;;;;;85.87;51.03;;;19.00;99.90;;;;;;6243510;23;20408;-71
2023/07/30 00:26:01;;;;;;;83.70;50.13;;;19.00;99.90;;;;;;6241585;23;20451;-71
2023/07/30 00:28:28;;;;;;;84.77;51.63;;;19.00;99.90;;;;;;6241858;23;20430;-70
2023/07/30 00:30:56;;;;;;;84.30;52.40;;;19.00;99.90;;;;;;6242437;23;20396;-71
2023/07/30 00:33:22;;;;;;;84.47;51.97;;;18.90;99.90;;;;;;6242101;22;20760;-71
2023/07/30 00:35:52;;;;;;;84.47;49.67;;;18.90;99.90;;;;;;6242339;23;20416;-70
2023/07/30 00:38:19;;;;;;;83.40;51.07;;;18.90;99.90;;;;;;6242160;23;20411;-72
2023/07/30 00:40:46;;;;;;;85.47;52.67;;;18.90;99.90;;;;;;6242603;23;20444;-71
2023/07/30 00:43:12;;;;;;;83.50;50.37;;;19.00;99.90;;;;;;6243108;23;20412;-71
2023/07/30 00:45:41;;;;;;;87.43;51.67;;;19.00;99.90;;;;;;6242340;23;20447;-71
2023/07/30 00:48:10;;;;;;;85.87;51.87;;;19.10;99.90;;;;;;6242887;23;20412;-71
2023/07/30 00:50:37;;;;;;;84.67;50.03;;;19.10;99.90;;;;;;6243249;23;20404;-71
2023/07/30 00:53:04;;;;;;;85.30;52.67;;;19.10;99.90;;;;;;6242461;23;20415;-72
2023/07/30 00:55:31;;;;;;;84.57;52.90;;;19.10;99.90;;;;;;6237834;23;20408;-71
2023/07/30 00:57:58;;;;;;;86.67;52.40;;;19.00;99.90;;;;;;6242488;23;20415;-71
2023/07/30 01:00:26;;;;;;;83.47;51.07;;;19.00;99.90;;;;;;6242633;23;20955;-70
2023/07/30 01:02:53;;;;;;;85.73;52.43;;;18.90;99.90;;;;;;6242536;23;20498;-71
2023/07/30 01:05:21;;;;;;;84.30;51.90;;;19.00;99.90;;;;;;6244116;23;20403;-71
2023/07/30 01:07:48;;;;;;;84.60;51.53;;;18.90;99.90;;;;;;6244918;23;20475;-70
2023/07/30 01:10:15;;;;;;;84.00;50.37;;;18.90;99.90;;;;;;6245006;23;20508;-71
2023/07/30 01:12:44;;;;;;;85.77;52.67;;;18.90;99.90;;;;;;6245242;23;20435;-71
2023/07/30 01:15:12;;;;;;;85.60;53.40;;;18.90;99.90;;;;;;6244460;23;20738;-71
2023/07/30 01:17:39;;;;;;;86.60;51.20;;;19.00;99.90;;;;;;6244558;23;20653;-72
2023/07/30 01:20:06;;;;;;;85.40;53.30;;;19.00;99.90;;;;;;6244464;23;20917;-72
2023/07/30 01:22:34;;;;;;;85.80;51.87;;;19.00;99.90;;;;;;6245226;23;20419;-72
2023/07/30 01:25:01;;;;;;;86.10;52.17;;;19.10;99.90;;;;;;6244971;23;20404;-72
2023/07/30 01:27:32;;;;;;;86.77;51.50;;;19.10;99.90;;;;;;6244959;23;20415;-72
2023/07/30 01:30:05;;;;;;;87.70;53.47;;;19.10;99.90;;;;;;6245051;23;20400;-71
2023/07/30 01:32:33;;;;;;;85.80;53.27;;;19.00;99.90;;;;;;6245101;23;20724;-72
2023/07/30 01:35:02;;;;;;;87.47;53.03;;;19.10;99.90;;;;;;6245053;23;20410;-72
2023/07/30 01:37:30;;;;;;;88.43;53.50;;;19.10;99.90;;;;;;6244793;23;20491;-73
2023/07/30 01:40:00;;;;;;;87.57;53.57;;;19.20;99.90;;;;;;6244579;23;20403;-72
2023/07/30 01:42:29;;;;;;;89.50;54.97;;;19.10;99.90;;;;;;6244765;23;20410;-72
2023/07/30 01:44:56;;;;;;;86.60;52.30;;;19.10;99.90;;;;;;6244341;23;20742;-73
2023/07/30 01:47:23;;;;;;;86.57;50.90;;;19.10;99.90;;;;;;6244585;23;20407;-74
2023/07/30 01:49:50;;;;;;;86.97;53.50;;;19.10;99.90;;;;;;6243801;23;20414;-73
2023/07/30 01:52:16;;;;;;;86.23;51.70;;;19.20;99.90;;;;;;6244627;23;20400;-73
2023/07/30 01:54:43;;;;;;;86.03;53.20;;;19.20;99.90;;;;;;6244560;23;20404;-72
2023/07/30 01:57:12;;;;;;;85.43;52.43;;;19.20;99.90;;;;;;6244631;23;20408;-73
2023/07/30 01:59:39;;;;;;;85.87;53.43;;;19.20;99.90;;;;;;6244482;23;20457;-73
2023/07/30 02:02:06;;;;;;;83.97;51.20;;;19.20;99.90;;;;;;6244064;23;20444;-72
2023/07/30 02:04:33;;;;;;;84.47;51.50;;;19.30;99.90;;;;;;6244359;23;20420;-72
2023/07/30 02:07:00;;;;;;;82.80;49.57;;;19.30;99.90;;;;;;6244605;23;20410;-72
2023/07/30 02:09:27;;;;;;;87.30;50.63;;;19.30;99.90;;;;;;6244222;23;20408;-72
2023/07/30 02:11:53;;;;;;;81.50;47.37;;;19.20;99.90;;;;;;6243924;23;20666;-73
2023/07/30 02:14:21;;;;;;;83.67;49.10;;;19.20;99.90;;;;;;6244167;23;20462;-73
2023/07/30 02:16:48;;;;;;;80.87;46.07;;;19.20;99.90;;;;;;6243745;23;20912;-74
2023/07/30 02:19:15;;;;;;;82.60;47.13;;;19.30;99.90;;;;;;6244508;23;20403;-74
2023/07/30 02:21:42;;;;;;;83.67;46.13;;;19.30;99.90;;;;;;6243813;23;20952;-74
2023/07/30 02:24:11;;;;;;;81.67;46.27;;;19.30;99.90;;;;;;6243894;23;20712;-74
2023/07/30 02:26:38;;;;;;;84.40;47.53;;;19.20;99.90;;;;;;6244157;23;20412;-74
2023/07/30 02:29:04;;;;;;;82.07;45.87;;;19.20;99.90;;;;;;6243887;23;20415;-74
2023/07/30 02:31:33;;;;;;;81.70;46.80;;;19.20;99.90;;;;;;6244221;23;20400;-74
2023/07/30 02:33:59;;;;;;;82.13;45.37;;;19.20;99.90;;;;;;6243631;23;20761;-74
2023/07/30 02:36:26;;;;;;;83.37;46.20;;;19.20;99.90;;;;;;6243509;23;20777;-74
2023/07/30 02:38:53;;;;;;;81.13;45.47;;;19.20;99.90;;;;;;6244146;23;20408;-74
2023/07/30 02:41:19;;;;;;;81.67;45.87;;;19.20;99.90;;;;;;6243781;23;20439;-73
2023/07/30 02:43:46;;;;;;;81.17;44.43;;;19.10;99.90;;;;;;6243838;23;20412;-73
2023/07/30 02:46:13;;;;;;;81.10;43.90;;;19.10;99.90;;;;;;6244093;23;20404;-73
2023/07/30 02:48:41;;;;;;;81.20;43.43;;;19.10;99.90;;;;;;6243966;23;20770;-72
2023/07/30 02:51:08;;;;;;;79.93;43.20;;;19.10;99.90;;;;;;6244018;23;20404;-73
2023/07/30 02:53:34;;;;;;;79.63;43.10;;;19.10;99.90;;;;;;6244118;23;20426;-73
2023/07/30 02:56:01;;;;;;;81.43;43.60;;;19.10;99.90;;;;;;6244214;23;20407;-73
2023/07/30 02:58:28;;;;;;;81.90;43.70;;;19.10;99.90;;;;;;6243294;23;20408;-72
2023/07/30 03:00:55;;;;;;;79.83;44.80;;;19.20;99.90;;;;;;6243565;23;20451;-73
2023/07/30 03:03:22;;;;;;;80.37;43.80;;;19.20;99.90;;;;;;6243074;23;20900;-74
2023/07/30 03:05:50;;;;;;;78.10;43.13;;;19.10;99.90;;;;;;6243516;23;20419;-73
2023/07/30 03:08:17;;;;;;;80.17;42.50;;;19.00;99.90;;;;;;6244169;23;20407;-74
2023/07/30 03:10:43;;;;;;;78.20;43.20;;;19.00;99.90;;;;;;6244142;23;20415;-74
2023/07/30 03:13:10;;;;;;;80.00;40.70;;;19.00;99.90;;;;;;6243657;23;20759;-73
2023/07/30 03:15:37;;;;;;;78.87;41.97;;;19.00;99.90;;;;;;6243770;23;20408;-73
2023/07/30 03:18:03;;;;;;;77.70;39.67;;;18.90;99.90;;;;;;6242828;23;20896;-73
2023/07/30 03:20:30;;;;;;;76.70;41.50;;;18.80;99.90;;;;;;6243736;23;20408;-73
2023/07/30 03:22:58;;;;;;;79.60;41.70;;;18.80;99.90;;;;;;6243471;23;20419;-73
2023/07/30 03:25:25;;;;;;;77.37;40.57;;;18.90;99.90;;;;;;6243381;23;20412;-73
2023/07/30 03:27:51;;;;;;;78.10;40.43;;;19.00;99.90;;;;;;6242789;23;20408;-74
2023/07/30 03:30:18;;;;;;;78.10;40.83;;;19.00;99.90;;;;;;6242823;23;20888;-74
2023/07/30 03:32:45;;;;;;;87.43;42.30;;;19.10;99.90;;;;;;6242906;22;20408;-74
2023/07/30 03:35:12;;;;;;;77.07;40.33;;;19.00;99.90;;;;;;6242592;23;20395;-73
2023/07/30 03:37:38;;;;;;;77.77;39.63;;;19.10;99.90;;;;;;6242439;23;20915;-73
2023/07/30 03:40:08;;;;;;;77.83;39.80;;;19.00;99.90;;;;;;6243039;23;20413;-73
2023/07/30 03:42:35;;;;;;;79.37;38.20;;;18.90;99.90;;;;;;6243396;23;20443;-73
2023/07/30 03:45:01;;;;;;;76.77;39.33;;;18.90;99.90;;;;;;6243334;23;20408;-73
2023/07/30 03:47:28;;;;;;;76.80;37.87;;;19.00;99.90;;;;;;6243405;23;20418;-73
2023/07/30 03:49:55;;;;;;;77.57;38.90;;;19.00;99.90;;;;;;6243201;23;20404;-74
2023/07/30 03:52:22;;;;;;;78.03;39.77;;;19.00;99.90;;;;;;6243270;23;20407;-73
2023/07/30 03:54:48;;;;;;;76.47;40.40;;;19.10;99.90;;;;;;6243202;23;20414;-74
2023/07/30 03:57:16;;;;;;;77.17;39.97;;;19.10;99.90;;;;;;6243487;23;20403;-73
2023/07/30 03:59:43;;;;;;;76.10;38.97;;;19.10;99.90;;;;;;6243323;23;20434;-73
2023/07/30 04:02:15;;;;;;;78.90;40.20;;;19.00;99.90;;;;;;6242620;23;20724;-73
2023/07/30 04:04:42;;;;;;;76.50;38.90;;;19.00;99.90;;;;;;6243250;23;20415;-73
2023/07/30 04:07:08;;;;;;;78.67;44.40;;;19.00;99.90;;;;;;6243185;23;20771;-73
2023/07/30 04:09:35;;;;;;;82.40;44.23;;;19.10;99.90;;;;;;6243099;23;20404;-75
2023/07/30 04:12:02;;;;;;;81.60;47.43;;;19.10;99.90;;;;;;6243089;23;20419;-75
2023/07/30 04:14:30;;;;;;;80.73;46.43;;;19.10;99.90;;;;;;6242982;23;20407;-75
2023/07/30 04:16:56;;;;;;;81.70;44.50;;;19.10;99.90;;;;;;6242957;23;20408;-72
2023/07/30 04:19:23;;;;;;;84.37;47.03;;;19.10;99.90;;;;;;6243080;23;20416;-72
2023/07/30 04:21:50;;;;;;;80.67;46.67;;;19.00;99.90;;;;;;6242839;23;20741;-71
2023/07/30 04:24:17;;;;;;;80.70;47.53;;;19.00;99.90;;;;;;6242962;23;20424;-72
2023/07/30 04:26:44;;;;;;;84.23;47.53;;;18.90;99.90;;;;;;6242475;23;20911;-71
2023/07/30 04:29:10;;;;;;;81.43;47.13;;;18.90;99.90;;;;;;6241612;23;20408;-72
2023/07/30 04:31:38;;;;;;;80.60;48.43;;;19.00;99.90;;;;;;6242029;23;20454;-72
2023/07/30 04:34:05;;;;;;;82.20;48.53;;;19.00;99.90;;;;;;6241335;22;20439;-72
2023/07/30 04:36:32;;;;;;;83.50;50.30;;;19.00;99.90;;;;;;6242086;23;20418;-72
2023/07/30 04:38:58;;;;;;;83.17;49.40;;;19.10;99.90;;;;;;6242151;23;20502;-72
2023/07/30 04:41:25;;;;;;;82.40;48.33;;;19.10;99.90;;;;;;6242363;23;20443;-71
2023/07/30 04:43:52;;;;;;;84.37;48.20;;;19.00;99.90;;;;;;6241792;23;20415;-72
2023/07/30 04:46:19;;;;;;;80.87;46.87;;;19.00;99.90;;;;;;6241821;23;20412;-72
2023/07/30 04:48:47;;;;;;;81.60;47.50;;;19.10;99.90;;;;;;6240928;23;20426;-72
2023/07/30 04:51:13;;;;;;;82.87;47.93;;;19.10;99.90;;;;;;6241119;23;20416;-72
2023/07/30 04:53:40;;;;;;;80.30;47.43;;;19.10;99.90;;;;;;6239829;23;20420;-72
2023/07/30 04:56:07;;;;;;;81.90;47.83;;;19.10;99.90;;;;;;6238696;23;20407;-73
2023/07/30 04:58:33;;;;;;;80.77;47.00;;;19.00;99.90;;;;;;6240200;23;20713;-72
2023/07/30 05:01:00;;;;;;;82.00;48.40;;;19.10;99.90;;;;;;6238507;23;20457;-72
2023/07/30 05:03:27;;;;;;;80.70;48.33;;;19.20;99.90;;;;;;6231173;23;20456;-72
2023/07/30 05:05:55;;;;;;;79.40;46.30;;;19.20;99.90;;;;;;6237744;23;21066;-72
2023/07/30 05:08:22;;;;;;;80.10;46.90;;;19.20;99.90;;;;;;6240378;23;20883;-73
2023/07/30 05:10:49;;;;;;;78.87;46.00;;;19.10;99.90;;;;;;6242022;23;20408;-73
2023/07/30 05:13:15;;;;;;;77.80;46.07;;;19.20;99.90;;;;;;6242561;23;20428;-72
2023/07/30 05:15:42;;;;;;;76.37;42.43;;;19.10;99.90;;;;;;6242499;23;20732;-73
2023/07/30 05:18:09;;;;;;;75.97;43.17;;;19.10;99.90;;;;;;6242782;23;20412;-72
2023/07/30 05:20:36;;;;;;;77.20;40.70;;;19.20;99.90;;;;;;6242898;23;20733;-73
2023/07/30 05:23:04;;;;;;;77.50;40.63;;;19.20;99.90;;;;;;6242454;23;20440;-73
2023/07/30 05:25:31;;;;;;;76.27;41.10;;;19.20;99.90;;;;;;6242551;23;20494;-74
2023/07/30 05:27:57;;;;;;;77.17;41.30;;;19.30;99.90;;;;;;6242711;23;20498;-71
2023/07/30 05:30:24;;;;;;;78.33;40.93;;;19.40;99.90;;;;;;6242001;23;20748;-73
2023/07/30 05:32:51;;;;;;;77.80;41.87;;;19.40;99.90;;;;;;6241967;22;20494;-74
2023/07/30 05:35:18;;;;;;;76.43;40.60;;;19.50;99.90;;;;;;6242699;23;20392;-72
2023/07/30 05:37:45;;;;;;;78.10;42.17;;;19.50;99.90;;;;;;6242141;23;20499;-73
2023/07/30 05:40:13;;;;;;;77.87;44.00;;;19.60;99.90;;;;;;6241096;23;20883;-73
2023/07/30 05:42:40;;;;;;;77.87;44.63;;;19.80;99.90;;;;;;6241994;23;20450;-73
2023/07/30 05:45:08;;;;;;;78.90;45.60;;;19.80;99.90;;;;;;6241475;23;20420;-73
2023/07/30 05:47:35;;;;;;;79.90;46.40;;;19.90;99.90;;;;;;6242742;23;20856;-73
2023/07/30 05:50:03;;;;;;;79.20;47.07;;;20.00;99.90;;;;;;6242336;23;20942;-73
2023/07/30 05:52:30;;;;;;;81.07;49.13;;;20.00;99.90;;;;;;6243178;23;20446;-71
2023/07/30 05:54:57;;;;;;;84.60;51.77;;;20.00;99.90;;;;;;6243618;23;20415;-74
2023/07/30 05:57:25;;;;;;;86.47;57.07;;;20.20;99.90;;;;;;6243163;23;20414;-75
2023/07/30 05:59:51;;;;;;;84.57;55.27;;;20.20;99.90;;;;;;6243689;23;20404;-74
2023/07/30 06:02:18;;;;;;;85.30;55.57;;;20.30;99.90;;;;;;6243452;23;20806;-74
2023/07/30 06:04:45;;;;;;;87.00;57.40;;;20.50;99.90;;;;;;6243410;23;20743;-73
2023/07/30 06:07:12;;;;;;;86.10;54.87;;;20.50;99.90;;;;;;6242827;23;20921;-74
2023/07/30 06:09:39;;;;;;;86.10;54.10;;;20.40;99.90;;;;;;6243140;23;20587;-74
2023/07/30 06:12:06;;;;;;;85.40;54.90;;;20.40;99.90;;;;;;6243629;23;20429;-72
2023/07/30 06:14:34;;;;;;;84.50;54.43;;;20.50;99.90;;;;;;6242981;23;20399;-73
2023/07/30 06:17:00;;;;;;;87.00;55.93;;;20.80;99.90;;;;;;6243004;23;20709;-72
2023/07/30 06:19:28;;;;;;;83.40;52.17;;;21.00;99.90;;;;;;6243715;23;20710;-73
2023/07/30 06:21:55;;;;;;;83.50;54.37;;;21.20;99.90;;;;;;6243023;23;20435;-73
2023/07/30 06:24:21;;;;;;;85.33;55.70;;;21.20;99.90;;;;;;6243411;23;20407;-72
2023/07/30 06:26:48;;;;;;;84.07;53.73;;;21.10;99.90;;;;;;6243241;23;20435;-74
2023/07/30 06:29:15;;;;;;;80.87;51.73;;;21.00;99.90;;;;;;6242968;23;20743;-73
2023/07/30 06:31:43;;;;;;;79.77;49.53;;;21.00;99.90;;;;;;6243212;23;20407;-73
2023/07/30 06:34:10;;;;;;;77.03;45.13;;;20.70;99.90;;;;;;6243264;22;20842;-72
2023/07/30 06:36:36;;;;;;;77.87;43.53;;;20.50;99.90;;;;;;6243349;23;20423;-73
2023/07/30 06:39:03;;;;;;;73.73;40.80;;;20.40;99.90;;;;;;6243640;23;20495;-72
2023/07/30 06:41:30;;;;;;;72.90;38.40;;;20.30;99.90;;;;;;6242997;23;20784;-73
2023/07/30 06:43:57;;;;;;;74.20;36.43;;;20.40;99.90;;;;;;6242570;23;20447;-73
2023/07/30 06:46:23;;;;;;;72.07;33.90;;;20.40;99.90;;;;;;6242778;23;20809;-72
2023/07/30 06:48:51;;;;;;;69.17;32.00;;;20.60;99.90;;;;;;6243073;23;20415;-72
2023/07/30 06:51:20;;;;;;;68.50;30.60;;;20.80;99.90;;;;;;6243321;23;20419;-72
2023/07/30 06:53:46;;;;;;;68.43;29.73;;;21.00;99.90;;;;;;6242941;23;20400;-72
2023/07/30 06:56:13;;;;;;;69.10;29.00;;;21.20;99.90;;;;;;6243072;23;20404;-71
2023/07/30 06:58:40;;;;;;;73.90;29.07;;;21.40;99.90;;;;;;6243361;23;20411;-73
2023/07/30 07:01:07;;;;;;;67.10;27.70;;;21.50;99.90;;;;;;6243298;23;20404;-72
2023/07/30 07:03:33;;;;;;;66.87;27.60;;;21.60;99.90;;;;;;6243065;23;20526;-73
2023/07/30 07:06:01;;;;;;;68.33;27.90;;;21.80;99.90;;;;;;6243781;23;20929;-73
2023/07/30 07:08:28;;;;;;;69.07;28.60;;;21.80;99.90;;;;;;6243237;23;20408;-73
2023/07/30 07:10:55;;;;;;;69.07;27.97;;;21.60;99.90;;;;;;6242058;23;20411;-73
2023/07/30 07:13:22;;;;;;;68.03;28.53;;;21.70;99.90;;;;;;6242776;23;20420;-73
2023/07/30 07:15:48;;;;;;;69.97;29.30;;;21.60;99.90;;;;;;6243343;23;20403;-73
2023/07/30 07:18:15;;;;;;;67.97;29.50;;;21.60;99.90;;;;;;6243105;23;20439;-73
2023/07/30 07:20:42;;;;;;;67.90;29.60;;;21.50;99.90;;;;;;6242383;23;20431;-73
2023/07/30 07:23:10;;;;;;;69.80;29.37;;;21.60;99.90;;;;;;6242032;23;20981;-73
2023/07/30 07:25:37;;;;;;;71.30;31.80;;;21.70;99.90;;;;;;6242881;23;20411;-74
2023/07/30 07:28:04;;;;;;;68.97;31.97;;;21.80;99.90;;;;;;6242978;23;20879;-74
2023/07/30 07:30:31;;;;;;;67.87;30.47;;;21.80;99.90;;;;;;6242496;23;20400;-72
2023/07/30 07:32:57;;;;;;;68.37;31.37;;;21.60;99.90;;;;;;6242126;22;20823;-74
2023/07/30 07:35:24;;;;;;;69.97;33.63;;;21.60;99.90;;;;;;6243108;23;20388;-73
2023/07/30 07:37:51;;;;;;;71.63;33.93;;;21.70;99.90;;;;;;6242940;23;20411;-72
2023/07/30 07:40:19;;;;;;;73.87;34.20;;;21.80;99.90;;;;;;6243695;23;20769;-72
2023/07/30 07:42:46;;;;;;;71.87;35.20;;;21.70;99.90;;;;;;6243211;23;20482;-72
2023/07/30 07:45:36;;;;;;;71.20;35.53;;;21.70;99.90;;;;;;6242752;23;20415;-71
2023/07/30 07:48:03;;;;;;;72.27;37.63;;;21.10;99.90;;;;;;6229226;23;20424;-73
2023/07/30 07:50:30;;;;;;;76.17;44.10;;;20.70;99.90;;;;;;6242287;23;20400;-74
2023/07/30 07:52:56;;;;;;;76.43;44.73;;;20.50;99.90;;;;;;6242779;23;20400;-74
2023/07/30 07:55:24;;;;;;;77.30;46.30;;;20.40;99.90;;;;;;6243115;23;20467;-74
2023/07/30 07:57:51;;;;;;;76.20;45.20;;;20.40;99.90;;;;;;6242737;23;20436;-73
2023/07/30 08:00:19;;;;;;;77.70;46.47;;;20.40;99.90;;;;;;6243055;23;20404;-74
2023/07/30 08:02:45;;;;;;;76.63;45.77;;;20.60;99.90;;;;;;6242452;23;20517;-73
2023/07/30 08:05:14;;;;;;;78.07;47.53;;;20.80;99.90;;;;;;6243872;23;20415;-72
2023/07/30 08:07:40;;;;;;;75.60;45.77;;;21.10;99.90;;;;;;6243188;23;20415;-72
2023/07/30 08:10:08;;;;;;;75.37;44.60;;;21.50;99.90;;;;;;6243204;23;20404;-73
2023/07/30 08:12:36;;;;;;;74.53;42.00;;;21.80;99.90;;;;;;6242962;23;20538;-73
2023/07/30 08:15:03;;;;;;;71.70;37.63;;;21.90;99.90;;;;;;6242310;23;20408;-73
2023/07/30 08:17:29;;;;;;;68.20;31.00;;;21.80;99.90;;;;;;6243009;23;20419;-73
2023/07/30 08:19:56;;;;;;;68.67;28.40;;;21.90;99.90;;;;;;6242798;23;20412;-74
2023/07/30 08:22:23;;;;;;;66.40;28.00;;;22.00;99.90;;;;;;6242330;23;20753;-73
2023/07/30 08:24:49;;;;;;;66.23;28.00;;;22.20;99.90;;;;;;6242331;23;20404;-73
2023/07/30 08:27:16;;;;;;;66.70;27.67;;;22.70;99.90;;;;;;6242797;23;20452;-73
2023/07/30 08:29:45;;;;;;;66.90;28.20;;;23.10;99.90;;;;;;6242362;23;20407;-73
2023/07/30 08:32:11;;;;;;;65.60;26.87;;;23.30;99.90;;;;;;6242539;23;20412;-75
2023/07/30 08:34:38;;;;;;;68.37;26.40;;;23.90;99.90;;;;;;6241993;22;21055;-74
2023/07/30 08:37:05;;;;;;;65.37;25.90;;;24.80;99.90;;;;;;6242230;23;20880;-74
2023/07/30 08:39:32;;;;;;;65.50;25.80;;;25.50;99.90;;;;;;6242663;23;20419;-73
2023/07/30 08:41:59;;;;;;;65.27;26.17;;;26.50;99.90;;;;;;6242698;23;20407;-73
2023/07/30 08:44:26;;;;;;;65.07;27.00;;;27.50;99.90;;;;;;6242179;23;20977;-74
2023/07/30 08:46:54;;;;;;;65.00;27.63;;;27.70;99.90;;;;;;6242483;23;20458;-75
2023/07/30 08:49:21;;;;;;;65.17;26.17;;;27.70;99.90;;;;;;6242751;23;20411;-75
2023/07/30 08:51:53;;;;;;;64.37;26.30;;;27.90;99.90;;;;;;6241772;23;20900;-75
2023/07/30 08:54:23;;;;;;;65.40;27.53;;;27.90;99.90;;;;;;6242816;23;20396;-75
2023/07/30 08:56:50;;;;;;;66.23;26.70;;;28.40;99.90;;;;;;6242927;23;20412;-76
2023/07/30 08:59:17;;;;;;;67.57;26.87;;;28.20;99.90;;;;;;6243148;23;20436;-75
2023/07/30 09:01:47;;;;;;;66.60;25.80;;;26.90;99.90;;;;;;6243211;23;20490;-77
2023/07/30 09:04:18;;;;;;;63.87;25.50;;;26.60;99.90;;;;;;6242664;23;21041;-77
2023/07/30 09:06:48;;;;;;;67.90;25.60;;;26.90;99.90;;;;;;6243303;23;20395;-78
2023/07/30 09:09:15;;;;;;;65.80;24.70;;;27.10;99.90;;;;;;6243214;23;20404;-75
2023/07/30 09:11:41;;;;;;;63.30;24.23;;;27.60;99.90;;;;;;6242795;23;20428;-75
2023/07/30 09:14:09;;;;;;;64.87;24.70;;;27.40;99.90;;;;;;6242455;23;20399;-76
2023/07/30 09:16:35;;;;;;;65.27;25.60;;;26.70;99.90;;;;;;6242274;23;20691;-75
2023/07/30 09:19:03;;;;;;;65.50;26.07;;;26.70;99.90;;;;;;6242393;23;20414;-76
2023/07/30 09:21:35;;;;;;;63.00;23.40;;;27.00;99.90;;;;;;6242897;23;20419;-76
2023/07/30 09:24:05;;;;;;;63.53;24.83;;;28.40;99.90;;;;;;6242677;23;20452;-76
2023/07/30 09:26:40;;;;;;;66.90;24.90;;;28.60;99.90;;;;;;6244435;23;20490;-76
2023/07/30 09:29:09;;;;;;;63.77;25.17;;;28.00;99.90;;;;;;6244314;23;20408;-75
2023/07/30 09:31:46;;;;;;;65.77;24.93;;;27.40;99.90;;;;;;6244214;23;20408;-75
2023/07/30 09:34:16;;;;;;;65.07;25.30;;;26.70;99.90;;;;;;6243734;22;20431;-76
2023/07/30 09:36:46;;;;;;;64.57;25.50;;;26.40;99.90;;;;;;6245038;23;20772;-75
2023/07/30 09:39:16;;;;;;;65.10;25.70;;;26.20;99.90;;;;;;6244956;23;20407;-76
2023/07/30 09:41:43;;;;;;;64.70;24.67;;;26.10;99.90;;;;;;6244457;23;20408;-76
2023/07/30 09:44:10;;;;;;;66.13;26.27;;;25.70;99.90;;;;;;6244143;23;20766;-76
2023/07/30 09:46:43;;;;;;;65.30;24.77;;;25.10;99.90;;;;;;6241306;23;20420;-75
2023/07/30 09:49:10;;;;;;;67.50;24.70;;;24.50;99.90;;;;;;6242718;23;20930;-76
2023/07/30 09:51:38;;;;;;;64.67;23.87;;;24.50;99.90;;;;;;6243538;23;20415;-76
2023/07/30 09:54:07;;;;;;;64.97;24.97;;;24.30;99.90;;;;;;6243878;23;20434;-77
2023/07/30 09:56:34;;;;;;;65.40;24.90;;;24.20;99.90;;;;;;6242877;23;20778;-75
2023/07/30 09:59:01;;;;;;;67.47;24.50;;;24.30;99.90;;;;;;6243358;23;20414;-74
2023/07/30 10:01:30;;;;;;;68.40;24.77;;;24.30;99.90;;;;;;6243357;23;20418;-76
2023/07/30 10:03:58;;;;;;;64.77;23.90;;;24.40;99.90;;;;;;6242679;23;20432;-76
2023/07/30 10:06:27;;;;;;;64.60;24.33;;;24.70;99.90;;;;;;6243416;23;20778;-75
2023/07/30 10:08:55;;;;;;;65.17;24.67;;;24.90;99.90;;;;;;6243381;23;20437;-76
2023/07/30 10:11:24;;;;;;;67.63;25.93;;;25.20;99.90;;;;;;6243292;23;20415;-74
2023/07/30 10:13:51;;;;;;;65.90;25.57;;;25.40;99.90;;;;;;6243312;23;20764;-75
2023/07/30 10:16:18;;;;;;;66.40;25.93;;;25.50;99.90;;;;;;6243022;23;20403;-75
2023/07/30 10:18:45;;;;;;;64.40;24.93;;;25.80;99.90;;;;;;6243347;23;20404;-75
2023/07/30 10:21:23;;;;;;;65.17;25.70;;;26.50;99.90;;;;;;6243005;23;20415;-76
2023/07/30 10:23:59;;;;;;;65.20;25.97;;;26.40;99.90;;;;;;6243518;23;20451;-75
2023/07/30 10:26:29;;;;;;;64.80;25.63;;;26.90;99.90;;;;;;6243600;23;20726;-75
2023/07/30 10:29:14;;;;;;;65.50;23.80;;;26.10;99.90;;;;;;6243321;23;20896;-75
2023/07/30 10:31:42;;;;;;;65.10;24.80;;;25.70;99.90;;;;;;6242039;23;20506;-76
2023/07/30 10:34:10;;;;;;;65.40;25.43;;;26.60;99.90;;;;;;6242700;22;20465;-76
2023/07/30 10:36:43;;;;;;;65.40;25.70;;;26.80;99.10;;;;;;6242833;23;20443;-74
2023/07/30 10:39:15;;;;;;;64.80;25.33;;;26.30;99.10;;;;;;6236591;23;20442;-76
2023/07/30 10:41:44;;;;;;;65.47;25.20;;;26.80;99.40;;;;;;6243531;23;20396;-75
2023/07/30 10:44:25;;;;;;;64.07;24.83;;;27.00;98.30;;;;;;6243427;23;20439;-74
2023/07/30 10:46:53;;;;;;;63.40;25.30;;;28.20;95.60;;;;;;6243363;23;20396;-75
2023/07/30 10:49:19;;;;;;;64.27;27.10;;;29.50;91.90;;;;;;6243471;23;20498;-75
2023/07/30 10:51:46;;;;;;;63.67;26.50;;;29.80;92.10;;;;;;6243744;23;20404;-76
2023/07/30 10:54:13;;;;;;;65.80;27.97;;;30.00;90.40;;;;;;6243475;23;20492;-75
2023/07/30 10:56:40;;;;;;;67.10;27.80;;;31.10;86.30;;;;;;6243317;23;20419;-75
2023/07/30 10:59:09;;;;;;;64.40;26.23;;;31.60;82.10;;;;;;6243047;23;20479;-73
2023/07/30 11:01:38;;;;;;;64.97;27.17;;;31.60;80.90;;;;;;6243313;23;20426;-75
2023/07/30 11:04:08;;;;;;;65.93;28.30;;;31.50;80.70;;;;;;6243187;23;20599;-76
2023/07/30 11:06:34;;;;;;;66.20;27.37;;;31.40;81.90;;;;;;6243314;23;20880;-76
2023/07/30 11:09:01;;;;;;;65.53;29.03;;;31.70;80.30;;;;;;6243530;23;20414;-74
2023/07/30 11:11:28;;;;;;;65.00;28.10;;;32.80;77.50;;;;;;6243164;23;20412;-75
2023/07/30 11:13:55;;;;;;;65.67;28.57;;;33.70;72.80;;;;;;6243073;23;20419;-74
2023/07/30 11:16:23;;;;;;;65.47;27.87;;;33.90;71.70;;;;;;6242594;23;20415;-75
2023/07/30 11:18:50;;;;;;;63.70;27.20;;;34.30;68.90;;;;;;6242677;23;20407;-75
2023/07/30 11:21:19;;;;;;;65.67;25.80;;;33.20;70.00;;;;;;6243219;23;20775;-76
2023/07/30 11:23:46;;;;;;;64.60;26.93;;;30.90;73.00;;;;;;6242887;23;20440;-76
2023/07/30 11:26:16;;;;;;;63.87;26.00;;;29.90;77.80;;;;;;6242988;23;20772;-75
2023/07/30 11:28:43;;;;;;;65.20;25.27;;;28.80;81.40;;;;;;6242879;23;20411;-75
2023/07/30 11:31:11;;;;;;;64.10;24.93;;;28.00;84.40;;;;;;6242576;23;20487;-76
2023/07/30 11:33:42;;;;;;;64.67;25.10;;;26.80;88.10;;;;;;6242416;23;20435;-74
2023/07/30 11:36:11;;;;;;;63.70;24.30;;;26.60;91.20;;;;;;6242925;23;20407;-75
2023/07/30 11:38:39;;;;;;;65.93;25.47;;;26.90;90.90;;;;;;6242298;23;20408;-75
2023/07/30 11:41:09;;;;;;;65.40;25.70;;;27.60;90.50;;;;;;6242602;23;20404;-75
2023/07/30 11:43:38;;;;;;;65.90;26.20;;;28.90;85.80;;;;;;6242627;23;20799;-74
2023/07/30 11:46:08;;;;;;;66.97;27.70;;;29.40;84.70;;;;;;6243001;23;20416;-74
2023/07/30 11:48:35;;;;;;;66.30;27.80;;;30.40;81.40;;;;;;6242242;23;20785;-75
2023/07/30 11:51:03;;;;;;;64.07;26.43;;;30.20;83.20;;;;;;6242975;23;20450;-75
2023/07/30 11:53:46;;;;;;;64.07;25.60;;;30.20;82.70;;;;;;6242644;23;20715;-75
2023/07/30 11:56:21;;;;;;;63.70;26.23;;;29.80;82.40;;;;;;6242852;23;20407;-75
2023/07/30 11:58:48;;;;;;;64.57;26.33;;;30.00;82.90;;;;;;6242919;23;20454;-75
2023/07/30 12:01:15;;;;;;;64.73;25.17;;;29.40;81.70;;;;;;6242502;23;20404;-75
2023/07/30 12:03:42;;;;;;;64.87;26.10;;;29.60;83.00;;;;;;6242147;23;20760;-76
2023/07/30 12:06:11;;;;;;;63.57;25.27;;;29.30;83.70;;;;;;6241680;23;20419;-74
2023/07/30 12:08:37;;;;;;;66.70;24.90;;;28.40;85.20;;;;;;6241989;23;20415;-75
2023/07/30 12:11:06;;;;;;;64.07;26.30;;;28.20;88.20;;;;;;6242312;23;20412;-75
2023/07/30 12:13:33;;;;;;;64.20;24.00;;;27.50;88.00;;;;;;6241874;23;20450;-76
2023/07/30 12:16:00;;;;;;;69.43;24.90;;;26.90;90.40;;;;;;6241925;23;20482;-75
2023/07/30 12:18:28;;;;;;;65.50;26.50;;;27.90;90.40;;;;;;6241775;23;20408;-74
2023/07/30 12:20:56;;;;;;;65.07;26.47;;;28.70;85.70;;;;;;6241241;23;20899;-75
2023/07/30 12:23:24;;;;;;;64.97;25.63;;;28.00;86.10;;;;;;6241699;23;20423;-76
2023/07/30 12:25:51;;;;;;;65.60;24.80;;;27.60;88.60;;;;;;6242122;23;20412;-76
2023/07/30 12:28:18;;;;;;;63.87;25.10;;;28.10;87.80;;;;;;6242383;23;20404;-74
2023/07/30 12:30:45;;;;;;;67.07;26.50;;;28.70;86.30;;;;;;6242100;23;20403;-75